< < Back
Terminal Aerodrome Forecast


Current Version              Previous Versions:   1  2  3  4  5  6  7  8  9  

Terminal Aerodrome Forecast

719
FTUS44 KHUN 250840 CCB
TAFHSV
TAF COR
KHSV 250840Z 2509/2606 32003KT 5SM BR SCT250
      TEMPO 2509/2513 3SM BR
     FM251300 31003KT P6SM SKC=



Latest METAR

643
SAUS80 KWBC 251300 RRB
MTRHSV
METAR KHSV 251253Z 09004KT 8SM SCT049 23/19 A3007 RMK AO2 SLP176
T02280194


USA.gov is the U.S. government's official web portal to all federal, state and local government web resources and services.